createdAt,value
2023-03-31T00:00:42.759Z,12.43
2023-03-31T00:03:11.259Z,20.90
2023-03-31T00:05:39.762Z,26.67
2023-03-31T00:08:09.429Z,22.07
2023-03-31T00:10:37.765Z,23.40
2023-03-31T00:13:07.546Z,17.00
2023-03-31T00:15:35.904Z,17.60
2023-03-31T00:18:04.333Z,20.90
2023-03-31T00:20:33.582Z,23.97
2023-03-31T00:23:02.497Z,17.20
2023-03-31T00:25:30.893Z,25.47
2023-03-31T00:27:59.258Z,23.90
2023-03-31T00:30:29.129Z,19.53
2023-03-31T00:32:57.611Z,17.07
2023-03-31T00:35:26.058Z,20.07
2023-03-31T00:37:57.930Z,9.63
2023-03-31T00:40:26.339Z,23.03
2023-03-31T00:42:55.072Z,22.00
2023-03-31T00:45:25.332Z,22.13
2023-03-31T00:47:56.080Z,21.87
2023-03-31T00:50:27.184Z,13.80
2023-03-31T00:52:57.954Z,14.37
2023-03-31T00:55:29.396Z,16.23
2023-03-31T00:57:57.959Z,13.10
2023-03-31T01:00:26.506Z,10.93
2023-03-31T01:02:59.207Z,17.77
2023-03-31T01:05:29.062Z,8.57
2023-03-31T01:07:58.008Z,17.70
2023-03-31T01:10:26.523Z,16.63
2023-03-31T01:12:56.179Z,21.60
2023-03-31T01:15:24.719Z,28.60
2023-03-31T01:17:56.076Z,19.33
2023-03-31T01:20:29.995Z,15.93
2023-03-31T01:23:13.157Z,15.17
2023-03-31T01:25:51.240Z,19.23
2023-03-31T01:28:22.675Z,10.00
2023-03-31T01:31:06.010Z,19.47
2023-03-31T01:33:47.042Z,21.57
2023-03-31T01:36:28.222Z,13.20
2023-03-31T01:39:15.360Z,7.03
2023-03-31T01:41:51.550Z,21.43
2023-03-31T01:44:24.909Z,9.30
2023-03-31T01:46:56.260Z,14.47
2023-03-31T01:49:26.961Z,17.77
2023-03-31T01:52:00.264Z,11.47
2023-03-31T01:54:32.137Z,22.17
2023-03-31T01:57:03.602Z,13.50
2023-03-31T01:59:36.096Z,15.63
2023-03-31T02:02:06.344Z,12.97
2023-03-31T02:04:35.961Z,15.80
2023-03-31T02:07:06.130Z,19.60
2023-03-31T02:09:36.886Z,11.43
2023-03-31T02:12:09.228Z,13.43
2023-03-31T02:14:39.401Z,12.53
2023-03-31T02:17:09.227Z,16.73
2023-03-31T02:19:40.277Z,4.80
2023-03-31T02:22:10.174Z,20.57
2023-03-31T02:24:39.338Z,15.63
2023-03-31T02:27:10.373Z,17.57
2023-03-31T02:29:38.888Z,22.37
2023-03-31T02:32:12.174Z,19.47
2023-03-31T02:34:40.557Z,23.90
2023-03-31T02:37:08.978Z,21.17
2023-03-31T02:39:38.380Z,16.13
2023-03-31T02:42:08.083Z,17.93
2023-03-31T02:44:39.480Z,17.37
2023-03-31T02:47:09.404Z,14.57
2023-03-31T02:49:38.444Z,14.30
2023-03-31T02:52:20.096Z,19.47
2023-03-31T02:55:05.310Z,16.70
2023-03-31T02:57:47.101Z,22.53
2023-03-31T03:00:21.304Z,15.80
2023-03-31T03:02:55.859Z,11.40
2023-03-31T03:05:27.176Z,13.67
2023-03-31T03:08:00.047Z,14.80
2023-03-31T03:10:32.443Z,19.07
2023-03-31T03:13:08.374Z,9.77
2023-03-31T03:15:39.429Z,11.27
2023-03-31T03:18:08.228Z,8.97
2023-03-31T03:20:36.902Z,12.70
2023-03-31T03:23:05.326Z,11.20
2023-03-31T03:25:34.240Z,16.90
2023-03-31T03:28:02.719Z,19.07
2023-03-31T03:30:31.153Z,14.13
2023-03-31T03:33:00.906Z,15.37
2023-03-31T03:35:29.350Z,18.97
2023-03-31T03:37:57.852Z,15.30
2023-03-31T03:40:26.232Z,11.27
2023-03-31T03:42:54.587Z,18.47
2023-03-31T03:45:22.980Z,14.37
2023-03-31T03:47:51.495Z,13.13
2023-03-31T03:50:21.280Z,14.50
2023-03-31T03:52:49.621Z,16.93
2023-03-31T03:55:18.325Z,16.10
2023-03-31T03:57:46.710Z,11.40
2023-03-31T04:00:15.345Z,22.67
2023-03-31T04:02:43.859Z,17.97
2023-03-31T04:05:12.472Z,11.43
2023-03-31T04:07:42.315Z,12.17
2023-03-31T04:10:11.254Z,11.17
2023-03-31T04:12:39.734Z,14.67
2023-03-31T04:15:08.687Z,17.27
2023-03-31T04:17:37.829Z,11.53
2023-03-31T04:20:09.440Z,9.67
2023-03-31T04:22:41.040Z,12.33
2023-03-31T04:25:15.079Z,13.50
2023-03-31T04:27:50.829Z,12.17
2023-03-31T04:30:23.717Z,13.70
2023-03-31T04:32:53.491Z,11.17
2023-03-31T04:35:22.238Z,11.60
2023-03-31T04:37:50.672Z,9.67
2023-03-31T04:40:20.693Z,9.70
2023-03-31T04:42:49.021Z,7.00
2023-03-31T04:45:17.502Z,11.93
2023-03-31T04:47:45.915Z,9.53
2023-03-31T04:50:16.950Z,9.87
2023-03-31T04:52:45.798Z,8.17
2023-03-31T04:55:14.165Z,5.73
2023-03-31T04:57:43.980Z,9.80
2023-03-31T05:00:13.039Z,2.47
2023-03-31T05:02:41.644Z,6.97
2023-03-31T05:05:10.934Z,7.07
2023-03-31T05:07:39.412Z,5.80
2023-03-31T05:10:08.139Z,10.10
2023-03-31T05:12:36.966Z,9.83
2023-03-31T05:15:07.647Z,10.83
2023-03-31T05:17:37.055Z,10.43
2023-03-31T05:20:08.141Z,13.73
2023-03-31T05:22:37.428Z,9.23
2023-03-31T05:25:07.127Z,11.67
2023-03-31T05:27:36.040Z,10.90
2023-03-31T05:30:05.777Z,8.90
2023-03-31T05:32:35.591Z,14.87
2023-03-31T05:35:05.856Z,23.97
2023-03-31T05:37:34.314Z,7.07
2023-03-31T05:40:04.676Z,12.33
2023-03-31T05:42:33.027Z,18.57
2023-03-31T05:45:01.422Z,17.63
2023-03-31T05:47:29.875Z,14.20
2023-03-31T05:49:59.705Z,14.47
2023-03-31T05:52:28.292Z,13.87
2023-03-31T05:54:56.734Z,15.53
2023-03-31T05:57:25.297Z,21.50
2023-03-31T05:59:53.720Z,16.27
2023-03-31T06:02:22.574Z,10.30
2023-03-31T06:04:52.102Z,9.83
2023-03-31T06:07:22.340Z,10.53
2023-03-31T06:09:50.804Z,14.50
2023-03-31T06:12:19.268Z,15.20
2023-03-31T06:14:47.699Z,12.97
2023-03-31T06:17:16.390Z,11.37
2023-03-31T06:19:44.780Z,10.83
2023-03-31T06:22:13.285Z,7.00
2023-03-31T06:24:43.099Z,8.47
2023-03-31T06:27:11.573Z,6.27
2023-03-31T06:29:40.028Z,9.07
2023-03-31T06:32:08.616Z,8.20
2023-03-31T06:34:37.173Z,7.53
2023-03-31T06:37:05.552Z,7.17
2023-03-31T06:39:33.971Z,7.50
2023-03-31T06:42:03.804Z,10.57
2023-03-31T06:44:32.437Z,9.37
2023-03-31T06:47:01.014Z,9.27
2023-03-31T06:49:29.385Z,9.47
2023-03-31T06:51:58.054Z,10.27
2023-03-31T06:54:26.466Z,7.33
2023-03-31T06:56:54.841Z,8.17
2023-03-31T06:59:24.603Z,7.60
2023-03-31T07:01:53.159Z,3.67
2023-03-31T07:04:21.657Z,6.30
2023-03-31T07:06:50.221Z,6.97
2023-03-31T07:09:21.370Z,14.03
2023-03-31T07:11:49.769Z,7.70
2023-03-31T07:14:18.369Z,11.73
2023-03-31T07:16:48.408Z,6.77
2023-03-31T07:19:16.999Z,7.53
2023-03-31T07:21:45.832Z,6.80
2023-03-31T07:24:14.253Z,17.10
2023-03-31T07:26:42.733Z,6.63
2023-03-31T07:29:11.275Z,5.70
2023-03-31T07:31:39.776Z,4.20
2023-03-31T07:34:09.570Z,6.03
2023-03-31T07:36:38.138Z,5.93
2023-03-31T07:39:07.714Z,5.53
2023-03-31T07:41:37.753Z,8.87
2023-03-31T07:44:06.261Z,4.00
2023-03-31T07:46:34.755Z,6.23
2023-03-31T07:49:07.476Z,5.13
2023-03-31T07:51:37.343Z,8.17
2023-03-31T07:54:05.829Z,5.33
2023-03-31T07:56:34.300Z,4.87
2023-03-31T07:59:02.768Z,9.77
2023-03-31T08:01:31.249Z,12.10
2023-03-31T08:04:01.053Z,5.40
2023-03-31T08:06:30.244Z,8.27
2023-03-31T08:09:00.756Z,10.23
2023-03-31T08:11:29.240Z,8.30
2023-03-31T08:13:57.722Z,6.60
2023-03-31T08:16:26.287Z,8.97
2023-03-31T08:18:54.708Z,7.03
2023-03-31T08:21:24.520Z,3.93
2023-03-31T08:23:55.350Z,7.97
2023-03-31T08:26:25.617Z,8.13
2023-03-31T08:28:54.601Z,7.87
2023-03-31T08:31:27.463Z,10.60
2023-03-31T08:33:56.332Z,5.13
2023-03-31T08:36:24.928Z,8.43
2023-03-31T08:38:54.203Z,7.90
2023-03-31T08:41:29.471Z,8.03
2023-03-31T08:43:59.181Z,8.83
2023-03-31T08:46:30.635Z,7.10
2023-03-31T08:49:01.292Z,8.57
2023-03-31T08:51:31.190Z,11.33
2023-03-31T08:54:03.067Z,8.63
2023-03-31T08:56:37.916Z,4.27
2023-03-31T08:59:07.094Z,8.30
2023-03-31T09:01:52.230Z,7.70
2023-03-31T09:04:28.304Z,4.87
2023-03-31T09:07:02.363Z,11.13
2023-03-31T09:09:35.767Z,8.63
2023-03-31T09:12:07.966Z,10.10
2023-03-31T09:14:39.001Z,8.37
2023-03-31T09:17:16.213Z,7.83
2023-03-31T09:19:47.106Z,8.57
2023-03-31T09:22:19.206Z,16.20
2023-03-31T09:24:52.355Z,8.17
2023-03-31T09:27:22.903Z,8.30
2023-03-31T09:29:53.025Z,10.13
2023-03-31T09:32:22.867Z,12.13
2023-03-31T09:34:53.927Z,7.53
2023-03-31T09:37:22.390Z,11.93
2023-03-31T09:39:50.957Z,7.87
2023-03-31T09:42:20.435Z,14.70
2023-03-31T09:44:51.489Z,10.33
2023-03-31T09:47:22.898Z,8.10
2023-03-31T09:49:54.077Z,9.20
2023-03-31T09:52:27.920Z,5.10
2023-03-31T09:54:57.780Z,4.57
2023-03-31T09:57:28.959Z,3.67
2023-03-31T10:00:13.745Z,8.20
2023-03-31T10:02:45.739Z,4.70
2023-03-31T10:05:23.931Z,8.37
2023-03-31T10:07:52.297Z,6.47
2023-03-31T10:10:28.719Z,6.80
2023-03-31T10:12:57.268Z,1.67
2023-03-31T10:15:30.405Z,7.50
2023-03-31T10:18:00.594Z,7.80
2023-03-31T10:20:36.109Z,1.90
2023-03-31T10:23:05.768Z,6.80
2023-03-31T10:25:36.046Z,11.03
2023-03-31T10:28:05.097Z,7.40
2023-03-31T10:30:38.421Z,6.60
2023-03-31T10:33:21.931Z,12.73
2023-03-31T10:35:52.079Z,5.07
2023-03-31T10:38:27.137Z,10.53
2023-03-31T10:40:57.011Z,13.30
2023-03-31T10:43:28.087Z,11.30
2023-03-31T10:45:58.773Z,9.37
2023-03-31T10:48:28.416Z,11.43
2023-03-31T10:51:00.610Z,9.43
2023-03-31T10:53:29.539Z,4.93
2023-03-31T10:56:03.938Z,15.20
2023-03-31T10:59:02.038Z,9.67
2023-03-31T11:01:40.816Z,12.47
2023-03-31T11:04:24.375Z,12.13
2023-03-31T11:06:57.727Z,10.60
2023-03-31T11:09:36.867Z,9.47
2023-03-31T11:12:10.055Z,11.90
2023-03-31T11:14:43.003Z,12.43
2023-03-31T11:17:20.065Z,5.33
2023-03-31T11:19:54.448Z,10.30
2023-03-31T11:22:28.000Z,6.17
2023-03-31T11:25:14.247Z,3.27
2023-03-31T11:27:52.578Z,8.53
2023-03-31T11:30:24.371Z,6.27
2023-03-31T11:33:01.224Z,7.20
2023-03-31T11:35:43.639Z,8.63
2023-03-31T11:38:23.431Z,6.20
2023-03-31T11:40:56.608Z,10.03
2023-03-31T11:43:28.602Z,3.43
2023-03-31T11:46:01.172Z,6.40
2023-03-31T11:48:34.214Z,6.67
2023-03-31T11:51:04.195Z,4.83
2023-03-31T11:53:34.298Z,7.17
2023-03-31T11:56:05.247Z,9.60
2023-03-31T11:58:37.312Z,7.87
2023-03-31T12:01:08.863Z,13.27
2023-03-31T12:03:41.519Z,5.00
2023-03-31T12:06:17.732Z,3.57
2023-03-31T12:08:49.456Z,4.10
2023-03-31T12:11:21.685Z,7.27
2023-03-31T12:13:53.226Z,7.70
2023-03-31T12:16:24.071Z,10.77
2023-03-31T12:18:59.460Z,6.17
2023-03-31T12:21:29.143Z,7.10
2023-03-31T12:23:57.583Z,7.80
2023-03-31T12:26:36.327Z,8.60
2023-03-31T12:29:07.742Z,6.60
2023-03-31T12:31:37.904Z,8.20
2023-03-31T12:34:10.707Z,6.90
2023-03-31T12:36:47.644Z,8.70
2023-03-31T12:39:23.368Z,6.73
2023-03-31T12:42:00.593Z,8.13
2023-03-31T12:44:36.229Z,3.57
2023-03-31T12:47:23.552Z,7.27
2023-03-31T12:50:01.853Z,3.63
2023-03-31T12:52:35.345Z,7.53
2023-03-31T12:55:10.793Z,5.40
2023-03-31T12:57:39.225Z,6.50
2023-03-31T13:00:24.478Z,7.40
2023-03-31T13:02:53.518Z,5.40
2023-03-31T13:05:40.700Z,6.57
2023-03-31T13:08:11.607Z,5.23
2023-03-31T13:10:55.081Z,6.33
2023-03-31T13:13:23.793Z,1.23
2023-03-31T13:15:53.124Z,8.13
2023-03-31T13:18:22.779Z,4.93
2023-03-31T13:23:37.337Z,6.37
2023-03-31T13:26:07.106Z,7.83
2023-03-31T13:28:37.224Z,6.90
2023-03-31T13:31:06.413Z,3.63
2023-03-31T13:33:37.218Z,6.07
2023-03-31T13:36:16.163Z,11.57
2023-03-31T13:38:53.187Z,5.10
2023-03-31T13:41:28.418Z,5.43
2023-03-31T13:44:21.197Z,2.50
2023-03-31T13:46:52.449Z,4.77
2023-03-31T13:49:35.770Z,6.47
2023-03-31T13:52:05.480Z,4.37
2023-03-31T13:54:54.612Z,6.77
2023-03-31T13:57:46.266Z,2.97
2023-03-31T14:00:29.225Z,6.07
2023-03-31T14:03:02.367Z,4.83
2023-03-31T14:05:32.537Z,1.67
2023-03-31T14:08:02.584Z,3.30
2023-03-31T14:10:33.028Z,4.07
2023-03-31T14:13:10.353Z,4.17
2023-03-31T14:15:39.731Z,3.83
2023-03-31T14:18:09.078Z,2.50
2023-03-31T14:20:54.545Z,3.77
2023-03-31T14:23:28.652Z,4.80
2023-03-31T14:26:03.417Z,4.73
2023-03-31T14:28:46.912Z,3.10
2023-03-31T14:31:21.669Z,4.10
2023-03-31T14:33:56.826Z,5.80
2023-03-31T14:36:30.695Z,5.10
2023-03-31T14:39:04.184Z,2.10
2023-03-31T14:41:32.868Z,3.60
2023-03-31T14:44:04.830Z,4.63
2023-03-31T14:46:34.128Z,4.23
2023-03-31T14:49:08.165Z,2.97
2023-03-31T14:51:36.625Z,3.40
2023-03-31T14:54:05.119Z,5.20
2023-03-31T14:56:36.279Z,3.93
2023-03-31T14:59:07.502Z,5.73
2023-03-31T15:01:38.145Z,4.87
2023-03-31T15:04:09.125Z,6.37
2023-03-31T15:06:39.933Z,5.83
2023-03-31T15:09:08.723Z,6.03
2023-03-31T15:11:37.120Z,3.40
2023-03-31T15:14:06.995Z,5.83
2023-03-31T15:16:42.350Z,4.27
2023-03-31T15:19:15.620Z,3.33
2023-03-31T15:21:44.529Z,4.93
2023-03-31T15:24:14.121Z,5.40
2023-03-31T15:26:46.801Z,7.50
2023-03-31T15:29:19.603Z,7.13
2023-03-31T15:31:48.325Z,5.73
2023-03-31T15:34:17.586Z,6.50
2023-03-31T15:36:50.274Z,4.03
2023-03-31T15:39:22.194Z,7.30
2023-03-31T15:41:51.687Z,7.53
2023-03-31T15:44:37.808Z,7.60
2023-03-31T15:47:19.412Z,7.90
2023-03-31T15:49:49.422Z,8.23
2023-03-31T15:52:22.295Z,6.17
2023-03-31T15:54:51.303Z,9.83
2023-03-31T15:57:19.926Z,4.57
2023-03-31T15:59:55.517Z,9.10
2023-03-31T16:02:26.788Z,7.90
2023-03-31T16:04:57.367Z,9.03
2023-03-31T16:07:27.304Z,8.90
2023-03-31T16:09:58.368Z,7.90
2023-03-31T16:12:28.284Z,10.77
2023-03-31T16:14:59.911Z,9.03
2023-03-31T16:17:32.150Z,7.93
2023-03-31T16:20:03.364Z,7.97
2023-03-31T16:22:35.429Z,9.47
2023-03-31T16:25:03.837Z,6.57
2023-03-31T16:27:32.335Z,11.17
2023-03-31T16:30:07.637Z,10.23
2023-03-31T16:32:37.483Z,10.40
2023-03-31T16:35:07.007Z,11.17
2023-03-31T16:37:35.509Z,11.20
2023-03-31T16:40:05.089Z,10.70
2023-03-31T16:42:33.482Z,8.30
2023-03-31T16:45:13.905Z,9.23
2023-03-31T16:47:45.746Z,11.03
2023-03-31T16:50:15.683Z,6.87
2023-03-31T16:52:44.210Z,8.47
2023-03-31T16:55:12.643Z,8.37
2023-03-31T16:57:41.011Z,9.97
2023-03-31T17:00:10.651Z,8.27
2023-03-31T17:02:39.146Z,6.87
2023-03-31T17:07:58.046Z,7.07
2023-03-31T17:10:26.647Z,4.60
2023-03-31T17:12:54.979Z,5.93
2023-03-31T17:15:23.465Z,6.13
2023-03-31T17:17:52.364Z,7.33
2023-03-31T17:20:22.485Z,10.97
2023-03-31T17:22:50.851Z,7.03
2023-03-31T17:25:19.964Z,7.50
2023-03-31T17:27:48.713Z,9.23
2023-03-31T17:30:17.252Z,7.00
2023-03-31T17:32:45.761Z,5.90
2023-03-31T17:35:20.582Z,5.37
2023-03-31T17:37:53.504Z,5.03
2023-03-31T17:40:21.995Z,7.53
2023-03-31T17:42:50.582Z,9.37
2023-03-31T17:45:21.683Z,6.30
2023-03-31T17:47:50.219Z,6.80
2023-03-31T17:50:19.618Z,8.77
2023-03-31T17:52:48.052Z,9.47
2023-03-31T17:55:18.020Z,8.97
2023-03-31T17:57:46.479Z,7.53
2023-03-31T18:00:16.583Z,6.20
2023-03-31T18:02:45.455Z,9.60
2023-03-31T18:05:15.220Z,6.40
2023-03-31T18:07:44.748Z,5.37
2023-03-31T18:10:13.159Z,8.20
2023-03-31T18:12:42.847Z,9.13
2023-03-31T18:15:11.700Z,7.60
2023-03-31T18:17:40.165Z,8.73
2023-03-31T18:20:09.927Z,8.93
2023-03-31T18:22:38.299Z,8.57
2023-03-31T18:25:06.980Z,6.20
2023-03-31T18:27:35.309Z,8.93
2023-03-31T18:30:06.130Z,5.47
2023-03-31T18:32:34.613Z,7.90
2023-03-31T18:35:03.418Z,8.20
2023-03-31T18:37:31.774Z,10.43
2023-03-31T18:40:00.203Z,10.03
2023-03-31T18:42:28.772Z,8.57
2023-03-31T18:44:57.630Z,10.73
2023-03-31T18:47:27.529Z,4.87
2023-03-31T18:49:56.480Z,6.37
2023-03-31T18:52:24.857Z,4.23
2023-03-31T18:54:53.222Z,1.83
2023-03-31T18:57:22.050Z,8.07
2023-03-31T18:59:50.416Z,9.03
2023-03-31T19:02:18.902Z,8.70
2023-03-31T19:04:49.869Z,10.80
2023-03-31T19:07:18.685Z,13.87
2023-03-31T19:09:47.006Z,12.50
2023-03-31T19:12:15.444Z,13.10
2023-03-31T19:14:44.050Z,11.87
2023-03-31T19:17:12.921Z,14.60
2023-03-31T19:19:41.476Z,17.27
2023-03-31T19:22:12.036Z,13.07
2023-03-31T19:24:41.045Z,14.90
2023-03-31T19:27:09.519Z,18.90
2023-03-31T19:29:37.893Z,12.93
2023-03-31T19:32:06.452Z,15.47
2023-03-31T19:34:34.886Z,12.13
2023-03-31T19:37:04.141Z,18.73
2023-03-31T19:39:33.969Z,10.47
2023-03-31T19:42:02.643Z,11.10
2023-03-31T19:44:31.206Z,18.60
2023-03-31T19:46:59.587Z,24.03
2023-03-31T19:49:28.279Z,12.53
2023-03-31T19:51:56.950Z,10.23
2023-03-31T19:54:25.741Z,14.00
2023-03-31T19:56:55.562Z,14.60
2023-03-31T19:59:23.930Z,11.53
2023-03-31T20:01:52.313Z,14.47
2023-03-31T20:04:21.145Z,20.63
2023-03-31T20:06:49.734Z,23.67
2023-03-31T20:09:18.367Z,17.77
2023-03-31T20:11:47.361Z,18.13
2023-03-31T20:14:17.516Z,14.23
2023-03-31T20:16:46.367Z,12.23
2023-03-31T20:19:16.404Z,8.73
2023-03-31T20:21:45.120Z,10.93
2023-03-31T20:24:16.581Z,9.90
2023-03-31T20:26:45.412Z,13.17
2023-03-31T20:29:13.815Z,18.07
2023-03-31T20:31:43.701Z,12.47
2023-03-31T20:34:14.120Z,12.80
2023-03-31T20:36:42.960Z,11.83
2023-03-31T20:39:12.265Z,12.67
2023-03-31T20:41:40.748Z,8.30
2023-03-31T20:44:12.744Z,17.63
2023-03-31T20:46:44.627Z,17.80
2023-03-31T20:49:13.349Z,18.17
2023-03-31T20:51:42.664Z,19.73
2023-03-31T20:54:11.079Z,3.27
2023-03-31T20:56:40.489Z,27.60
2023-03-31T20:59:09.471Z,15.50
2023-03-31T21:01:38.461Z,8.60
2023-03-31T21:04:09.847Z,22.33
2023-03-31T21:06:39.069Z,32.03
2023-03-31T21:09:07.754Z,26.43
2023-03-31T21:11:36.110Z,13.33
2023-03-31T21:14:05.796Z,35.30
2023-03-31T21:16:34.530Z,17.97
2023-03-31T21:19:02.913Z,15.60
2023-03-31T21:21:33.707Z,9.20
2023-03-31T21:24:02.148Z,33.73
2023-03-31T21:26:30.547Z,30.53
2023-03-31T21:28:58.935Z,25.07
2023-03-31T21:31:27.722Z,19.00
2023-03-31T21:33:57.728Z,28.60
2023-03-31T21:36:26.766Z,29.80
2023-03-31T21:38:57.548Z,28.80
2023-03-31T21:41:27.181Z,13.43
2023-03-31T21:43:55.838Z,33.97
2023-03-31T21:46:24.862Z,36.60
2023-03-31T21:48:53.341Z,28.60
2023-03-31T21:51:22.967Z,36.20
2023-03-31T21:53:53.050Z,32.53
2023-03-31T21:56:22.920Z,17.90
2023-03-31T21:58:51.982Z,22.00
2023-03-31T22:01:21.673Z,26.37
2023-03-31T22:03:50.306Z,35.33
2023-03-31T22:06:18.753Z,30.37
2023-03-31T22:08:47.274Z,18.40
2023-03-31T22:11:15.963Z,39.00
2023-03-31T22:13:45.733Z,17.93
2023-03-31T22:16:18.508Z,26.63
2023-03-31T22:18:48.183Z,39.57
2023-03-31T22:21:17.592Z,17.70
2023-03-31T22:23:46.523Z,42.57
2023-03-31T22:26:15.552Z,45.10
2023-03-31T22:28:43.903Z,40.03
2023-03-31T22:31:13.731Z,42.43
2023-03-31T22:33:42.206Z,28.87
2023-03-31T22:36:10.872Z,26.53
2023-03-31T22:38:39.849Z,11.03
2023-03-31T22:41:08.200Z,15.73
2023-03-31T22:43:36.560Z,20.47
2023-03-31T22:46:05.902Z,39.70
2023-03-31T22:48:36.148Z,36.80
2023-03-31T22:51:05.844Z,44.40
2023-03-31T22:53:34.449Z,24.03
2023-03-31T22:56:05.433Z,31.67
2023-03-31T22:58:33.950Z,29.03
2023-03-31T23:01:02.997Z,30.17
2023-03-31T23:03:31.668Z,49.63
2023-03-31T23:06:05.523Z,32.77
2023-03-31T23:08:35.796Z,29.27
2023-03-31T23:11:05.108Z,35.33
2023-03-31T23:13:33.784Z,32.43
2023-03-31T23:16:04.620Z,48.33
2023-03-31T23:18:32.994Z,85.03
2023-03-31T23:21:02.626Z,38.13
2023-03-31T23:23:32.468Z,60.13
2023-03-31T23:26:01.986Z,26.27
2023-03-31T23:28:30.316Z,70.93
2023-03-31T23:30:59.250Z,94.13
2023-03-31T23:33:28.153Z,63.57
2023-03-31T23:36:00.417Z,7.63
2023-03-31T23:38:28.866Z,3.23
2023-03-31T23:40:58.906Z,37.03
2023-03-31T23:43:27.914Z,0.60
2023-03-31T23:45:56.534Z,13.40
2023-03-31T23:48:25.006Z,1.20
2023-03-31T23:50:53.369Z,9.70
2023-03-31T23:53:22.025Z,33.67
2023-03-31T23:55:56.556Z,60.73
2023-03-31T23:58:26.579Z,20.23
